Kinde, MI (48445)

6:16 PM EDT on October 21, 2014 (GMT -0400)
Huron County Memorial | Change Station
CLOSE
Current Station
Airport
Location: Bad Axe,
Elevation: 764 ft
Nearby Weather Stations

Elev 764 ft 43.78 °N, 82.99 °W | Updated 17 minutes ago

Overcast
Overcast
43 °F
Feels Like 36 °F
N
15
Wind Variable Wind from North
Gusts 20 mph

Today
High -- | Low -- °F
--% Chance of Precip.
Yesterday
High -- | Low -- °F
Precip. -- in
7:54 AM 6:38 PM
Waning Crescent, 4% visible
Pressure 30.16 in
Visibility 10.0 miles
Clouds Overcast 2600 ft
Windchill 36 °F
Dew Point 37 °F
Humidity 78%
Rainfall 0.00 in
Snow Depth Not available.
UV 0 out of 12
Pollen 1.00 out of 12
PM2.5 Good
Flu Activity Sporadic
METAR KBAX 212159Z AUTO 36013G17KT 10SM OVC026 06/03 A3016 RMK AO2 T00610026

More Conditions Fewer Conditions

Pressure 30.16 in
Visibility 10.0 miles
Clouds Overcast 2600 ft
Windchill 36 °F
Dew Point 37 °F
Humidity 78%
Rainfall 0.00 in
Snow Depth Not available.
UV 0 out of 12
Pollen 1.00 out of 12
PM2.5 Good
Flu Activity Sporadic
METAR KBAX 212159Z AUTO 36013G17KT 10SM OVC026 06/03 A3016 RMK AO2 T00610026

More Conditions Fewer Conditions

10-Day Weather Forecast

Almanac

Astronomy

Oct. 21, 2014 Rise Set
Actual Time 7:54 AM EDT 6:38 PM EDT
Civil Twilight 7:24 AM EDT 7:07 PM EDT
Nautical Twilight 6:51 AM EDT 7:41 PM EDT
Astronomical Twilight 6:17 AM EDT 8:14 PM EDT
Moon 5:32 AM EDT 5:35 PM EDT
Length of Visible Light 11h 43m
Length of Day
10h 44m
Tomorrow will be 2m 52s shorter.
Waning Crescent, 4% of the Moon is Illuminated
Today
Waning Crescent
Oct 23
New
Oct 30
First Quarter
Nov 6
Full
Nov 14
Last Quarter

Today's Extremes

State Highs State Lows

Community

WunderPhotos

Upload Photos

1,763,798 photos uploaded!

Nearby

Air Quality

  Air Quality AQ Index Pollutant
Yesterday Good
PM2.5
Current Good
PM2.5
Tuesday Good
PM2.5
Wednesday Good
PM2.5
Thursday Good
PM2.5
Friday Good
PM2.5
Saturday Good
PM2.5

Snow Depth

Station Depth Elevation
No new snow has been reported.

Earthquake Activity

City Distance Mag. Time & Date
No recent earthquake activity has been reported nearby.
Minimum magnitude displayed is 2.5.

Coastal Water Temperatures

Place Temperature
Harbor Beach, MI 48.9 °F

Nearby Weather Stations